Terminal Aerodrome Forecast
Issued by NWS North Platte, NE

Home | Current Version | Previous Version | Text Only | Print | Product List | Glossary Off
Versions: 1 2 3 4 5 6 7 8 9 10 11 12 13 14

000
FTUS43 KLBF 010520
TAFVTN
TAF
KVTN 010520Z 0106/0206 17010KT P6SM BKN150
     FM011800 17014G20KT P6SM SCT150
     FM020000 15010KT P6SM SCT200=

USA.gov is the U.S. government's official web portal to all federal, state and local government web resources and services.